createdAt,value
2022-09-10T00:01:23.621Z,14.81
2022-09-10T00:03:50.244Z,14.82
2022-09-10T00:06:18.681Z,14.83
2022-09-10T00:08:46.524Z,14.85
2022-09-10T00:11:14.999Z,14.84
2022-09-10T00:13:42.555Z,14.83
2022-09-10T00:16:11.620Z,14.80
2022-09-10T00:18:39.534Z,14.82
2022-09-10T00:21:10.211Z,14.83
2022-09-10T00:23:36.878Z,14.86
2022-09-10T00:26:27.208Z,14.86
2022-09-10T00:28:56.090Z,14.90
2022-09-10T00:31:23.529Z,14.92
2022-09-10T00:33:50.646Z,14.94
2022-09-10T00:36:29.839Z,14.97
2022-09-10T00:38:59.593Z,14.98
2022-09-10T00:41:26.708Z,14.97
2022-09-10T00:43:52.969Z,14.98
2022-09-10T00:46:25.383Z,14.96
2022-09-10T00:48:55.963Z,14.97
2022-09-10T00:51:23.688Z,14.97
2022-09-10T00:53:50.816Z,14.99
2022-09-10T00:56:17.610Z,14.98
2022-09-10T00:58:46.039Z,14.98
2022-09-10T01:01:13.438Z,15.00
2022-09-10T01:03:44.187Z,14.99
2022-09-10T01:06:10.983Z,14.97
2022-09-10T01:08:37.464Z,14.98
2022-09-10T01:11:27.730Z,14.96
2022-09-10T01:14:12.416Z,14.96
2022-09-10T01:17:05.896Z,14.96
2022-09-10T01:19:50.704Z,14.95
2022-09-10T01:22:49.228Z,14.95
2022-09-10T01:25:22.563Z,14.93
2022-09-10T01:27:52.757Z,14.93
2022-09-10T01:30:32.013Z,14.93
2022-09-10T01:33:13.507Z,14.90
2022-09-10T01:35:44.840Z,14.89
2022-09-10T01:38:20.608Z,14.90
2022-09-10T01:40:47.914Z,14.90
2022-09-10T01:43:15.058Z,14.88
2022-09-10T01:46:18.417Z,14.88
2022-09-10T01:48:55.180Z,14.85
2022-09-10T01:51:52.464Z,14.85
2022-09-10T01:54:41.755Z,14.84
2022-09-10T01:57:41.600Z,14.85
2022-09-10T02:00:14.595Z,14.80
2022-09-10T02:03:01.944Z,14.81
2022-09-10T02:05:31.509Z,14.80
2022-09-10T02:08:02.139Z,14.79
2022-09-10T02:10:28.790Z,14.79
2022-09-10T02:12:55.698Z,14.76
2022-09-10T02:15:25.135Z,14.78
2022-09-10T02:17:53.563Z,14.79
2022-09-10T02:20:22.033Z,14.81
2022-09-10T02:22:52.320Z,14.81
2022-09-10T02:25:18.879Z,14.84
2022-09-10T02:27:45.732Z,14.83
2022-09-10T02:30:12.922Z,14.85
2022-09-10T02:32:39.284Z,14.85
2022-09-10T02:35:06.118Z,14.88
2022-09-10T02:37:32.456Z,14.87
2022-09-10T02:39:59.354Z,14.87
2022-09-10T02:42:26.278Z,14.86
2022-09-10T02:44:53.541Z,14.88
2022-09-10T02:47:19.904Z,14.89
2022-09-10T02:49:46.264Z,14.90
2022-09-10T02:52:12.625Z,14.91
2022-09-10T02:54:40.112Z,14.92
2022-09-10T02:57:07.589Z,14.94
2022-09-10T02:59:34.086Z,14.97
2022-09-10T03:02:00.446Z,14.97
2022-09-10T03:04:26.872Z,14.98
2022-09-10T03:06:54.843Z,15.00
2022-09-10T03:09:22.332Z,15.02
2022-09-10T03:11:48.989Z,15.02
2022-09-10T03:14:20.151Z,15.03
2022-09-10T03:16:47.593Z,15.03
2022-09-10T03:19:14.593Z,15.05
2022-09-10T03:21:47.458Z,15.08
2022-09-10T03:24:15.448Z,15.05
2022-09-10T03:26:43.334Z,15.07
2022-09-10T03:29:10.060Z,15.10
2022-09-10T03:31:36.813Z,15.11
2022-09-10T03:34:04.169Z,15.12
2022-09-10T03:36:33.419Z,15.11
2022-09-10T03:38:59.825Z,15.11
2022-09-10T03:41:28.416Z,15.11
2022-09-10T03:43:55.423Z,15.12
2022-09-10T03:46:22.740Z,15.14
2022-09-10T03:48:52.118Z,15.13
2022-09-10T03:51:21.591Z,15.14
2022-09-10T03:53:48.266Z,15.15
2022-09-10T03:56:15.433Z,15.15
2022-09-10T03:58:41.802Z,15.17
2022-09-10T04:01:08.576Z,15.18
2022-09-10T04:03:35.003Z,15.20
2022-09-10T04:06:01.423Z,15.21
2022-09-10T04:08:27.824Z,15.23
2022-09-10T04:10:56.979Z,15.24
2022-09-10T04:13:23.390Z,15.23
2022-09-10T04:15:49.769Z,15.23
2022-09-10T04:18:16.224Z,15.23
2022-09-10T04:20:46.523Z,15.22
2022-09-10T04:23:12.878Z,15.22
2022-09-10T04:25:39.241Z,15.22
2022-09-10T04:28:05.793Z,15.22
2022-09-10T04:30:32.233Z,15.23
2022-09-10T04:32:58.620Z,15.22
2022-09-10T04:35:25.873Z,15.21
2022-09-10T04:37:52.227Z,15.20
2022-09-10T04:40:18.822Z,15.21
2022-09-10T04:42:45.197Z,15.21
2022-09-10T04:45:11.622Z,15.21
2022-09-10T04:47:38.040Z,15.21
2022-09-10T04:50:06.212Z,15.22
2022-09-10T04:52:33.118Z,15.23
2022-09-10T04:54:59.708Z,15.22
2022-09-10T04:57:26.149Z,15.24
2022-09-10T04:59:55.675Z,15.25
2022-09-10T05:02:22.054Z,15.25
2022-09-10T05:04:48.508Z,15.26
2022-09-10T05:07:14.963Z,15.27
2022-09-10T05:09:41.354Z,15.27
2022-09-10T05:12:07.935Z,15.28
2022-09-10T05:14:34.316Z,15.28
2022-09-10T05:17:00.801Z,15.28
2022-09-10T05:19:27.160Z,15.29
2022-09-10T05:21:53.542Z,15.30
2022-09-10T05:24:20.104Z,15.29
2022-09-10T05:26:46.499Z,15.31
2022-09-10T05:29:13.958Z,15.31
2022-09-10T05:31:40.931Z,15.32
2022-09-10T05:34:08.358Z,15.34
2022-09-10T05:36:35.276Z,15.34
2022-09-10T05:39:03.630Z,15.35
2022-09-10T05:41:31.077Z,15.36
2022-09-10T05:43:57.958Z,15.40
2022-09-10T05:46:24.630Z,15.42
2022-09-10T05:48:54.088Z,15.45
2022-09-10T05:51:21.766Z,15.49
2022-09-10T05:53:48.491Z,15.52
2022-09-10T05:56:14.938Z,15.56
2022-09-10T05:58:41.299Z,15.60
2022-09-10T06:01:07.682Z,15.61
2022-09-10T06:03:34.461Z,15.61
2022-09-10T06:06:00.898Z,15.59
2022-09-10T06:08:27.277Z,15.59
2022-09-10T06:11:05.877Z,15.62
2022-09-10T06:13:33.794Z,15.63
2022-09-10T06:16:00.675Z,15.63
2022-09-10T06:18:27.603Z,15.60
2022-09-10T06:21:10.973Z,15.58
2022-09-10T06:23:37.488Z,15.56
2022-09-10T06:26:06.552Z,15.62
2022-09-10T06:28:33.751Z,15.62
2022-09-10T06:31:00.712Z,15.61
2022-09-10T06:33:27.130Z,15.62
2022-09-10T06:35:57.787Z,15.62
2022-09-10T06:38:25.152Z,15.63
2022-09-10T06:40:55.923Z,15.60
2022-09-10T06:43:23.770Z,15.65
2022-09-10T06:45:53.003Z,15.66
2022-09-10T06:51:10.064Z,15.74
2022-09-10T06:53:37.139Z,15.75
2022-09-10T06:56:05.879Z,15.78
2022-09-10T06:58:35.757Z,15.80
2022-09-10T07:01:13.827Z,15.84
2022-09-10T07:03:41.200Z,15.87
2022-09-10T07:06:10.605Z,15.88
2022-09-10T07:08:37.553Z,15.88
2022-09-10T07:11:07.977Z,15.89
2022-09-10T07:13:35.436Z,15.94
2022-09-10T07:16:01.995Z,16.00
2022-09-10T07:18:28.772Z,16.05
2022-09-10T07:21:06.977Z,16.13
2022-09-10T07:23:33.461Z,16.19
2022-09-10T07:26:05.156Z,16.31
2022-09-10T07:28:32.010Z,16.36
2022-09-10T07:30:59.200Z,16.45
2022-09-10T07:33:25.769Z,16.58
2022-09-10T07:35:52.258Z,16.70
2022-09-10T07:38:20.552Z,16.83
2022-09-10T07:40:48.261Z,17.06
2022-09-10T07:43:15.391Z,17.27
2022-09-10T07:45:41.885Z,17.44
2022-09-10T07:48:08.401Z,17.55
2022-09-10T07:50:35.117Z,17.59
2022-09-10T07:53:01.538Z,17.92
2022-09-10T07:55:29.020Z,17.90
2022-09-10T07:57:59.511Z,17.88
2022-09-10T08:00:26.569Z,17.86
2022-09-10T08:02:52.987Z,17.89
2022-09-10T08:05:19.359Z,17.87
2022-09-10T08:07:46.051Z,17.89
2022-09-10T08:10:13.352Z,17.74
2022-09-10T08:12:40.770Z,17.52
2022-09-10T08:15:09.321Z,17.30
2022-09-10T08:17:36.762Z,17.23
2022-09-10T08:20:08.407Z,17.14
2022-09-10T08:22:35.246Z,17.13
2022-09-10T08:25:02.498Z,17.15
2022-09-10T08:27:28.965Z,17.25
2022-09-10T08:29:56.324Z,17.42
2022-09-10T08:32:23.166Z,17.50
2022-09-10T08:34:49.745Z,17.54
2022-09-10T08:37:16.796Z,17.56
2022-09-10T08:39:43.234Z,17.57
2022-09-10T08:42:32.141Z,17.60
2022-09-10T08:45:05.082Z,17.77
2022-09-10T08:47:53.465Z,17.84
2022-09-10T08:50:26.456Z,17.92
2022-09-10T08:52:59.402Z,18.09
2022-09-10T08:55:31.728Z,18.19
2022-09-10T08:58:03.231Z,18.21
2022-09-10T09:00:37.743Z,18.12
2022-09-10T09:03:14.637Z,18.02
2022-09-10T09:05:47.584Z,18.01
2022-09-10T09:08:17.736Z,18.09
2022-09-10T09:10:49.410Z,18.25
2022-09-10T09:13:47.693Z,18.44
2022-09-10T09:16:22.047Z,18.96
2022-09-10T09:19:23.261Z,19.13
2022-09-10T09:21:59.114Z,19.11
2022-09-10T09:24:47.299Z,19.18
2022-09-10T09:27:20.190Z,19.47
2022-09-10T09:30:03.990Z,19.27
2022-09-10T09:32:34.543Z,19.13
2022-09-10T09:35:16.806Z,19.27
2022-09-10T09:37:48.299Z,19.64
2022-09-10T09:40:37.251Z,20.03
2022-09-10T09:43:24.240Z,19.69
2022-09-10T09:45:53.510Z,19.40
2022-09-10T09:48:21.836Z,19.15
2022-09-10T09:50:51.802Z,19.45
2022-09-10T09:53:22.723Z,19.65
2022-09-10T09:55:55.553Z,19.57
2022-09-10T09:58:21.903Z,19.93
2022-09-10T10:00:52.899Z,19.75
2022-09-10T10:03:25.086Z,19.30
2022-09-10T10:06:10.239Z,19.14
2022-09-10T10:08:52.915Z,19.43
2022-09-10T10:11:21.437Z,20.04
2022-09-10T10:13:51.474Z,20.61
2022-09-10T10:16:26.837Z,20.58
2022-09-10T10:18:53.314Z,20.33
2022-09-10T10:21:34.695Z,19.97
2022-09-10T10:24:01.121Z,19.80
2022-09-10T10:26:33.187Z,19.54
2022-09-10T10:29:07.078Z,19.45
2022-09-10T10:31:43.266Z,19.54
2022-09-10T10:34:21.967Z,19.57
2022-09-10T10:37:16.496Z,19.61
2022-09-10T10:39:45.847Z,19.82
2022-09-10T10:42:29.227Z,20.10
2022-09-10T10:45:18.011Z,20.16
2022-09-10T10:48:09.871Z,19.97
2022-09-10T10:51:01.839Z,20.01
2022-09-10T10:53:51.420Z,20.16
2022-09-10T10:56:27.853Z,20.26
2022-09-10T10:59:29.752Z,20.18
2022-09-10T11:02:14.001Z,20.32
2022-09-10T11:04:46.611Z,20.51
2022-09-10T11:07:20.987Z,20.32
2022-09-10T11:10:03.931Z,20.22
2022-09-10T11:12:39.925Z,20.25
2022-09-10T11:15:25.407Z,20.01
2022-09-10T11:17:59.774Z,19.97
2022-09-10T11:20:38.878Z,20.01
2022-09-10T11:23:30.255Z,20.25
2022-09-10T11:26:21.528Z,20.36
2022-09-10T11:29:03.620Z,20.18
2022-09-10T11:31:35.951Z,19.97
2022-09-10T11:34:09.377Z,19.96
2022-09-10T11:36:49.918Z,20.08
2022-09-10T11:39:23.905Z,20.32
2022-09-10T11:41:54.672Z,20.45
2022-09-10T11:44:51.205Z,20.21
2022-09-10T11:47:29.512Z,20.17
2022-09-10T11:50:35.089Z,20.38
2022-09-10T11:53:02.430Z,20.58
2022-09-10T11:55:51.869Z,20.87
2022-09-10T11:58:49.089Z,21.09
2022-09-10T12:02:02.861Z,20.88
2022-09-10T12:04:58.886Z,20.94
2022-09-10T12:07:49.456Z,21.11
2022-09-10T12:10:34.915Z,21.35
2022-09-10T12:13:01.548Z,21.21
2022-09-10T12:15:31.177Z,21.18
2022-09-10T12:18:04.836Z,21.18
2022-09-10T12:20:42.175Z,21.53
2022-09-10T12:23:18.243Z,21.81
2022-09-10T12:25:44.961Z,22.22
2022-09-10T12:28:42.307Z,22.30
2022-09-10T12:31:20.120Z,21.61
2022-09-10T12:33:46.437Z,21.99
2022-09-10T12:36:14.843Z,22.53
2022-09-10T12:39:21.616Z,22.94
2022-09-10T12:41:48.331Z,22.87
2022-09-10T12:44:29.230Z,22.43
2022-09-10T12:47:18.564Z,22.14
2022-09-10T12:50:02.826Z,21.67
2022-09-10T12:52:35.199Z,20.80
2022-09-10T12:55:23.423Z,20.22
2022-09-10T12:57:56.752Z,20.04
2022-09-10T13:00:25.444Z,19.92
2022-09-10T13:03:08.578Z,19.86
2022-09-10T13:05:53.273Z,20.05
2022-09-10T13:08:33.910Z,20.16
2022-09-10T13:11:01.248Z,20.04
2022-09-10T13:13:52.095Z,20.25
2022-09-10T13:16:38.315Z,20.33
2022-09-10T13:19:13.832Z,20.26
2022-09-10T13:21:40.162Z,20.58
2022-09-10T13:24:35.992Z,20.67
2022-09-10T13:27:10.246Z,20.62
2022-09-10T13:29:40.019Z,20.74
2022-09-10T13:32:32.011Z,20.95
2022-09-10T13:35:11.130Z,21.15
2022-09-10T13:38:03.091Z,21.02
2022-09-10T13:40:41.411Z,20.81
2022-09-10T13:43:20.774Z,20.21
2022-09-10T13:45:52.244Z,20.31
2022-09-10T13:48:28.737Z,20.40
2022-09-10T13:51:23.237Z,20.49
2022-09-10T13:53:50.138Z,20.53
2022-09-10T13:56:25.117Z,20.68
2022-09-10T13:58:57.024Z,20.69
2022-09-10T14:01:53.151Z,21.05
2022-09-10T14:04:27.198Z,21.26
2022-09-10T14:07:01.717Z,21.61
2022-09-10T14:09:29.190Z,21.52
2022-09-10T14:11:59.681Z,21.68
2022-09-10T14:14:30.163Z,22.05
2022-09-10T14:17:02.777Z,21.62
2022-09-10T14:20:01.321Z,21.33
2022-09-10T14:22:31.306Z,21.05
2022-09-10T14:25:00.637Z,21.39
2022-09-10T14:27:28.332Z,21.86
2022-09-10T14:29:56.492Z,21.88
2022-09-10T14:32:22.860Z,21.91
2022-09-10T14:34:49.495Z,21.82
2022-09-10T14:37:36.775Z,21.61
2022-09-10T14:40:23.479Z,21.49
2022-09-10T14:42:50.580Z,21.31
2022-09-10T14:45:49.888Z,21.03
2022-09-10T14:48:38.445Z,20.96
2022-09-10T14:51:20.435Z,21.27
2022-09-10T14:53:51.623Z,21.85
2022-09-10T14:56:37.603Z,22.05
2022-09-10T14:59:27.590Z,21.89
2022-09-10T15:01:54.822Z,22.03
2022-09-10T15:04:23.696Z,22.50
2022-09-10T15:06:54.547Z,22.70
2022-09-10T15:09:21.457Z,22.91
2022-09-10T15:11:58.375Z,23.00
2022-09-10T15:14:25.638Z,23.15
2022-09-10T15:16:52.259Z,22.82
2022-09-10T15:19:19.624Z,22.49
2022-09-10T15:21:46.700Z,22.32
2022-09-10T15:24:15.411Z,22.24
2022-09-10T15:26:42.616Z,22.26
2022-09-10T15:29:09.758Z,22.21
2022-09-10T15:31:36.739Z,22.47
2022-09-10T15:34:06.396Z,22.48
2022-09-10T15:36:34.013Z,22.47
2022-09-10T15:39:00.588Z,22.63
2022-09-10T15:41:27.719Z,22.87
2022-09-10T15:43:54.191Z,22.88
2022-09-10T15:46:24.257Z,22.81
2022-09-10T15:48:54.059Z,22.63
2022-09-10T15:51:23.165Z,22.28
2022-09-10T15:53:52.293Z,22.24
2022-09-10T15:56:20.377Z,22.31
2022-09-10T15:58:55.187Z,22.51
2022-09-10T16:01:23.173Z,22.22
2022-09-10T16:03:51.789Z,21.92
2022-09-10T16:06:22.079Z,21.93
2022-09-10T16:08:53.145Z,22.02
2022-09-10T16:11:20.085Z,22.14
2022-09-10T16:13:46.836Z,22.34
2022-09-10T16:16:18.016Z,22.44
2022-09-10T16:18:45.589Z,22.38
2022-09-10T16:21:18.410Z,22.15
2022-09-10T16:23:46.751Z,21.92
2022-09-10T16:26:17.789Z,22.00
2022-09-10T16:28:56.253Z,22.00
2022-09-10T16:31:22.679Z,21.49
2022-09-10T16:33:54.519Z,21.54
2022-09-10T16:36:22.235Z,21.45
2022-09-10T16:38:53.201Z,21.36
2022-09-10T16:41:20.141Z,21.16
2022-09-10T16:43:46.821Z,21.04
2022-09-10T16:46:13.549Z,20.89
2022-09-10T16:48:42.908Z,20.84
2022-09-10T16:51:15.635Z,20.68
2022-09-10T16:53:47.433Z,20.72
2022-09-10T16:56:16.362Z,20.62
2022-09-10T16:58:47.064Z,20.58
2022-09-10T17:01:14.976Z,20.48
2022-09-10T17:03:43.848Z,20.38
2022-09-10T17:06:24.267Z,20.21
2022-09-10T17:08:53.015Z,19.96
2022-09-10T17:11:20.647Z,19.75
2022-09-10T17:13:47.046Z,19.67
2022-09-10T17:16:24.002Z,19.60
2022-09-10T17:19:04.439Z,19.60
2022-09-10T17:21:32.297Z,19.63
2022-09-10T17:23:59.521Z,19.55
2022-09-10T17:26:27.126Z,19.42
2022-09-10T17:28:57.979Z,19.34
2022-09-10T17:31:25.025Z,19.29
2022-09-10T17:33:51.682Z,19.27
2022-09-10T17:36:19.683Z,19.24
2022-09-10T17:38:46.209Z,19.22
2022-09-10T17:41:15.557Z,19.15
2022-09-10T17:43:43.695Z,19.13
2022-09-10T17:46:15.198Z,19.05
2022-09-10T17:48:45.835Z,18.96
2022-09-10T17:51:14.680Z,18.89
2022-09-10T17:53:41.585Z,18.83
2022-09-10T17:56:11.155Z,18.82
2022-09-10T17:58:38.296Z,18.76
2022-09-10T18:01:13.970Z,18.70
2022-09-10T18:03:40.886Z,18.65
2022-09-10T18:06:09.754Z,18.59
2022-09-10T18:08:40.085Z,18.56
2022-09-10T18:11:09.407Z,18.48
2022-09-10T18:13:36.812Z,18.42
2022-09-10T18:16:12.448Z,18.40
2022-09-10T18:18:39.410Z,18.35
2022-09-10T18:21:27.368Z,18.30
2022-09-10T18:24:00.081Z,18.24
2022-09-10T18:26:28.916Z,18.14
2022-09-10T18:29:09.113Z,18.09
2022-09-10T18:31:38.639Z,18.06
2022-09-10T18:34:08.318Z,17.99
2022-09-10T18:36:34.937Z,17.95
2022-09-10T18:39:05.915Z,17.89
2022-09-10T18:41:36.539Z,17.83
2022-09-10T18:44:05.946Z,17.79
2022-09-10T18:46:33.380Z,17.72
2022-09-10T18:49:00.378Z,17.69
2022-09-10T18:51:28.638Z,17.61
2022-09-10T18:53:58.285Z,17.54
2022-09-10T18:56:27.352Z,17.48
2022-09-10T18:58:56.916Z,17.42
2022-09-10T19:01:24.438Z,17.35
2022-09-10T19:03:51.359Z,17.32
2022-09-10T19:06:21.067Z,17.28
2022-09-10T19:08:49.411Z,17.25
2022-09-10T19:11:19.239Z,17.20
2022-09-10T19:13:53.984Z,17.16
2022-09-10T19:16:22.963Z,17.13
2022-09-10T19:18:51.572Z,17.09
2022-09-10T19:21:20.084Z,17.08
2022-09-10T19:23:47.982Z,17.09
2022-09-10T19:26:14.571Z,17.07
2022-09-10T19:28:42.069Z,17.05
2022-09-10T19:31:10.672Z,17.01
2022-09-10T19:33:37.473Z,16.98
2022-09-10T19:36:06.282Z,16.93
2022-09-10T19:38:37.731Z,16.89
2022-09-10T19:41:10.035Z,16.84
2022-09-10T19:43:36.688Z,16.79
2022-09-10T19:46:04.579Z,16.75
2022-09-10T19:48:31.098Z,16.72
2022-09-10T19:50:57.705Z,16.69
2022-09-10T19:53:24.823Z,16.66
2022-09-10T19:55:51.555Z,16.64
2022-09-10T19:58:18.888Z,16.61
2022-09-10T20:00:47.433Z,16.56
2022-09-10T20:03:14.714Z,16.54
2022-09-10T20:05:42.640Z,16.49
2022-09-10T20:08:09.879Z,16.44
2022-09-10T20:10:37.709Z,16.41
2022-09-10T20:13:04.852Z,16.38
2022-09-10T20:15:32.028Z,16.40
2022-09-10T20:17:58.573Z,16.38
2022-09-10T20:20:24.917Z,16.37
2022-09-10T20:22:51.591Z,16.34
2022-09-10T20:25:18.179Z,16.32
2022-09-10T20:27:44.600Z,16.27
2022-09-10T20:30:11.730Z,16.22
2022-09-10T20:32:38.071Z,16.20
2022-09-10T20:35:04.774Z,16.16
2022-09-10T20:37:31.108Z,16.13
2022-09-10T20:39:58.621Z,16.08
2022-09-10T20:42:27.759Z,16.05
2022-09-10T20:44:55.406Z,16.02
2022-09-10T20:47:24.198Z,15.98
2022-09-10T20:49:50.624Z,15.95
2022-09-10T20:52:17.417Z,15.93
2022-09-10T20:54:43.854Z,15.88
2022-09-10T20:57:11.391Z,15.85
2022-09-10T20:59:37.756Z,15.82
2022-09-10T21:02:04.240Z,15.79
2022-09-10T21:04:32.715Z,15.75
2022-09-10T21:06:59.087Z,15.73
2022-09-10T21:09:25.506Z,15.70
2022-09-10T21:11:51.862Z,15.67
2022-09-10T21:14:18.660Z,15.63
2022-09-10T21:16:47.139Z,15.60
2022-09-10T21:19:17.131Z,15.57
2022-09-10T21:21:45.283Z,15.53
2022-09-10T21:24:14.618Z,15.48
2022-09-10T21:26:43.150Z,15.43
2022-09-10T21:29:14.992Z,15.40
2022-09-10T21:31:42.031Z,15.39
2022-09-10T21:34:08.930Z,15.30
2022-09-10T21:36:37.373Z,15.23
2022-09-10T21:39:06.670Z,15.20
2022-09-10T21:41:35.663Z,15.16
2022-09-10T21:44:04.802Z,15.13
2022-09-10T21:46:32.411Z,15.12
2022-09-10T21:48:59.478Z,15.12
2022-09-10T21:51:26.292Z,15.08
2022-09-10T21:53:59.171Z,15.05
2022-09-10T21:56:27.794Z,15.00
2022-09-10T21:58:55.738Z,14.94
2022-09-10T22:01:24.407Z,14.90
2022-09-10T22:03:54.675Z,14.84
2022-09-10T22:06:23.774Z,14.78
2022-09-10T22:08:53.193Z,14.74
2022-09-10T22:11:23.978Z,14.73
2022-09-10T22:13:52.930Z,14.71
2022-09-10T22:16:20.821Z,14.70
2022-09-10T22:18:47.537Z,14.67
2022-09-10T22:21:14.895Z,14.66
2022-09-10T22:23:41.486Z,14.62
2022-09-10T22:26:10.908Z,14.59
2022-09-10T22:28:38.284Z,14.58
2022-09-10T22:31:12.957Z,14.56
2022-09-10T22:33:41.148Z,14.51
2022-09-10T22:36:15.699Z,14.43
2022-09-10T22:38:53.674Z,14.40
2022-09-10T22:41:23.065Z,14.36
2022-09-10T22:43:50.184Z,14.35
2022-09-10T22:46:17.729Z,14.36
2022-09-10T22:48:45.436Z,14.35
2022-09-10T22:51:14.881Z,14.33
2022-09-10T22:53:43.243Z,14.31
2022-09-10T22:56:11.935Z,14.32
2022-09-10T22:58:39.571Z,14.28
2022-09-10T23:01:12.657Z,14.24
2022-09-10T23:03:39.482Z,14.25
2022-09-10T23:06:09.338Z,14.25
2022-09-10T23:08:36.800Z,14.22
2022-09-10T23:11:15.268Z,14.19
2022-09-10T23:13:43.256Z,14.15
2022-09-10T23:16:21.773Z,14.11
2022-09-10T23:18:50.669Z,14.12
2022-09-10T23:21:20.562Z,14.10
2022-09-10T23:23:48.625Z,14.07
2022-09-10T23:26:17.191Z,14.05
2022-09-10T23:28:44.759Z,14.03
2022-09-10T23:31:15.491Z,14.00
2022-09-10T23:33:43.796Z,14.00
2022-09-10T23:36:13.992Z,14.00
2022-09-10T23:38:42.639Z,13.97
2022-09-10T23:41:11.875Z,13.90
2022-09-10T23:43:39.320Z,13.85
2022-09-10T23:46:09.139Z,13.80
2022-09-10T23:48:36.749Z,13.81
2022-09-10T23:51:04.064Z,13.85
2022-09-10T23:53:32.380Z,13.83
2022-09-10T23:55:59.330Z,13.80
2022-09-10T23:58:25.978Z,13.76
